Time;durP1;ratioP1;P1;durP2;ratioP2;P2;SDS_P1;SDS_P2;PMS_P1;PMS_P2;Temp;Humidity;BMP_temperature;BMP_pressure;BME280_temperature;BME280_humidity;BME280_pressure;Samples;Min_cycle;Max_cycle;Signal;HPM_P1;HPM_P2
2022/01/05 00:01:54;;;;;;;1.08;0.80;;;;;;;4.03;94.29;94208.72;4842460;29;20424;-40
2022/01/05 00:04:21;;;;;;;1.90;1.00;;;;;;;4.37;91.36;94213.66;4844542;29;20054;-40
2022/01/05 00:06:48;;;;;;;3.60;1.67;;;;;;;3.99;95.16;94213.97;4857500;29;20056;-40
2022/01/05 00:09:15;;;;;;;1.50;1.00;;;;;;;3.51;97.15;94213.53;4838515;29;20053;-41
2022/01/05 00:11:42;;;;;;;1.90;1.13;;;;;;;3.64;96.69;94222.38;4809360;29;20346;-39
2022/01/05 00:14:08;;;;;;;1.13;0.95;;;;;;;3.26;99.53;94235.91;4825409;29;20051;-39
2022/01/05 00:16:35;;;;;;;1.35;0.90;;;;;;;3.19;100.00;94241.00;4824518;29;20042;-40
2022/01/05 00:19:03;;;;;;;0.88;0.50;;;;;;;3.06;99.78;94250.06;4825057;29;20056;-40
2022/01/05 00:21:30;;;;;;;0.95;0.40;;;;;;;2.72;100.00;94249.16;4826556;29;20042;-40
2022/01/05 00:23:57;;;;;;;1.02;0.70;;;;;;;3.05;100.00;94257.28;4842999;29;20057;-41
2022/01/05 00:26:25;;;;;;;0.52;0.52;;;;;;;2.86;100.00;94260.41;4847166;29;20500;-40
2022/01/05 00:28:52;;;;;;;0.75;0.60;;;;;;;2.84;100.00;94261.84;4848426;29;20496;-40
2022/01/05 00:31:19;;;;;;;1.13;0.70;;;;;;;2.70;100.00;94262.06;4828591;29;20058;-40
2022/01/05 00:33:46;;;;;;;0.90;0.70;;;;;;;2.70;100.00;94262.84;4824955;29;20057;-41
2022/01/05 00:36:13;;;;;;;1.58;1.02;;;;;;;3.04;100.00;94269.09;4838958;29;20141;-40
2022/01/05 00:38:39;;;;;;;0.90;0.70;;;;;;;3.11;100.00;94273.91;4824473;29;20054;-39
2022/01/05 00:41:06;;;;;;;1.50;1.00;;;;;;;2.98;100.00;94284.50;4842711;29;20156;-39
2022/01/05 00:43:33;;;;;;;1.40;1.10;;;;;;;2.98;100.00;94279.16;4843247;29;20057;-40
2022/01/05 00:46:00;;;;;;;1.90;1.10;;;;;;;3.15;99.62;94288.19;4842983;29;20050;-41
2022/01/05 00:48:29;;;;;;;1.75;1.08;;;;;;;2.66;100.00;94288.63;4825574;29;20098;-40
2022/01/05 00:50:58;;;;;;;1.20;0.88;;;;;;;3.00;98.62;94298.34;4824880;29;20474;-40
2022/01/05 00:53:25;;;;;;;1.75;1.10;;;;;;;3.22;96.52;94288.47;4824064;29;20060;-42
2022/01/05 00:55:52;;;;;;;2.28;1.17;;;;;;;3.19;96.59;94291.78;4824658;29;20046;-42
2022/01/05 00:58:19;;;;;;;1.65;1.20;;;;;;;3.11;97.33;94290.72;4824031;29;20058;-46
2022/01/05 01:00:46;;;;;;;1.48;0.90;;;;;;;2.83;98.82;94298.44;4824322;29;20407;-43
2022/01/05 01:03:14;;;;;;;1.33;0.85;;;;;;;2.86;97.03;94283.66;4824732;29;20074;-41
2022/01/05 01:05:41;;;;;;;0.90;0.70;;;;;;;2.59;100.00;94293.69;4823796;29;20063;-41
2022/01/05 01:08:09;;;;;;;1.30;0.95;;;;;;;2.62;100.00;94289.59;4823591;29;20050;-39
2022/01/05 01:10:36;;;;;;;1.40;1.10;;;;;;;2.95;97.39;94289.72;4824698;29;20054;-40
2022/01/05 01:13:03;;;;;;;0.82;0.70;;;;;;;2.91;97.45;94299.50;4825139;29;20065;-42
2022/01/05 01:15:30;;;;;;;1.42;0.80;;;;;;;2.42;99.57;94299.09;4824465;29;20080;-39
2022/01/05 01:17:57;;;;;;;1.90;0.82;;;;;;;2.56;100.00;94299.66;4823457;29;20042;-40
2022/01/05 01:20:24;;;;;;;1.38;0.80;;;;;;;2.77;98.78;94311.19;4824310;29;20050;-39
2022/01/05 01:22:51;;;;;;;0.55;0.40;;;;;;;2.83;96.27;94314.47;4824184;29;20057;-38
2022/01/05 01:25:18;;;;;;;0.43;0.30;;;;;;;2.56;98.67;94321.81;4837989;29;20141;-38
2022/01/05 01:27:45;;;;;;;0.60;0.38;;;;;;;2.49;99.23;94320.75;4823368;29;20054;-38
2022/01/05 01:30:12;;;;;;;1.45;0.40;;;;;;;2.76;97.88;94325.66;4824709;29;20061;-43
2022/01/05 01:32:41;;;;;;;0.43;0.40;;;;;;;2.72;97.21;94339.97;4822772;29;20069;-42
2022/01/05 01:35:08;;;;;;;0.70;0.50;;;;;;;2.53;98.69;94335.78;4822617;29;20054;-42
2022/01/05 01:37:35;;;;;;;0.40;0.40;;;;;;;2.67;96.52;94337.50;4837515;29;20421;-43
2022/01/05 01:40:03;;;;;;;0.38;0.38;;;;;;;2.37;99.00;94336.63;4823497;29;20420;-42
2022/01/05 01:42:30;;;;;;;0.50;0.40;;;;;;;2.21;99.56;94339.03;4824061;29;20058;-43
2022/01/05 01:44:57;;;;;;;0.45;0.45;;;;;;;2.51;97.97;94343.34;4823871;29;20101;-42
2022/01/05 01:47:25;;;;;;;0.68;0.52;;;;;;;2.46;97.31;94338.16;4822186;29;20043;-44
2022/01/05 01:49:51;;;;;;;0.50;0.50;;;;;;;2.49;97.70;94336.75;4823588;29;20047;-42
2022/01/05 01:52:18;;;;;;;0.50;0.50;;;;;;;2.73;96.49;94334.31;4823627;29;20489;-44
2022/01/05 01:54:46;;;;;;;1.63;0.60;;;;;;;2.39;96.16;94331.78;4837837;29;20500;-42
2022/01/05 01:57:14;;;;;;;0.50;0.50;;;;;;;2.45;97.60;94333.16;4823200;29;20410;-44
2022/01/05 01:59:45;;;;;;;0.50;0.50;;;;;;;2.63;96.00;94325.84;4823475;29;20047;-42
2022/01/05 02:02:12;;;;;;;0.50;0.50;;;;;;;2.58;95.98;94327.63;4836853;29;20056;-41
2022/01/05 02:04:41;;;;;;;0.63;0.52;;;;;;;2.27;97.66;94327.09;4841390;29;20119;-45
2022/01/05 02:07:09;;;;;;;0.68;0.57;;;;;;;2.33;96.93;94318.59;4841076;29;20045;-40
2022/01/05 02:09:37;;;;;;;0.70;0.70;;;;;;;2.50;96.19;94333.78;4836291;29;20054;-44
2022/01/05 02:12:06;;;;;;;0.80;0.80;;;;;;;2.41;95.82;94329.56;4823388;29;20043;-41
2022/01/05 02:14:33;;;;;;;0.85;0.70;;;;;;;2.37;96.61;94334.75;4823492;29;20046;-42
2022/01/05 02:17:04;;;;;;;0.60;0.60;;;;;;;2.46;96.94;94330.16;4821733;29;20126;-39
2022/01/05 02:19:31;;;;;;;1.05;0.80;;;;;;;2.40;96.77;94323.44;4834479;29;20469;-41
2022/01/05 02:21:58;;;;;;;0.73;0.73;;;;;;;2.44;96.76;94340.41;4834188;29;20046;-43
2022/01/05 02:24:26;;;;;;;1.25;0.90;;;;;;;2.41;97.10;94338.38;4823338;29;20091;-40
2022/01/05 02:26:52;;;;;;;1.60;1.00;;;;;;;2.40;97.30;94341.34;4822724;29;20412;-44
2022/01/05 02:29:21;;;;;;;1.52;1.08;;;;;;;2.38;97.14;94341.66;4823152;29;20058;-40
2022/01/05 02:31:48;;;;;;;1.10;0.80;;;;;;;2.36;96.93;94332.41;4823878;29;20052;-41
2022/01/05 02:34:16;;;;;;;2.00;1.10;;;;;;;2.07;99.11;94326.66;4823433;29;20057;-42
2022/01/05 02:36:43;;;;;;;1.70;1.00;;;;;;;2.31;97.75;94334.16;4822828;29;20058;-40
2022/01/05 02:39:10;;;;;;;1.05;0.80;;;;;;;2.37;97.29;94331.28;4836763;29;20050;-45
2022/01/05 02:41:37;;;;;;;1.05;0.85;;;;;;;2.25;98.08;94330.09;4841381;29;20050;-43
2022/01/05 02:44:04;;;;;;;1.52;0.82;;;;;;;2.41;97.47;94337.59;4841174;29;20049;-41
2022/01/05 02:46:32;;;;;;;1.33;1.00;;;;;;;2.31;98.07;94334.16;4854916;29;20049;-39
2022/01/05 02:49:02;;;;;;;0.88;0.70;;;;;;;2.34;98.88;94335.41;4823820;29;20057;-42
2022/01/05 02:51:29;;;;;;;0.85;0.73;;;;;;;2.48;97.24;94341.31;4825670;29;20050;-43
2022/01/05 02:53:56;;;;;;;1.08;0.70;;;;;;;2.48;97.53;94340.53;4855240;29;20049;-41
2022/01/05 02:56:23;;;;;;;0.75;0.65;;;;;;;2.73;96.91;94342.31;4841213;29;20101;-43
2022/01/05 02:58:50;;;;;;;0.88;0.65;;;;;;;2.34;97.25;94332.75;4839802;29;20050;-42
2022/01/05 03:01:17;;;;;;;1.55;0.80;;;;;;;2.58;97.62;94332.94;4823177;29;20121;-42
2022/01/05 03:03:45;;;;;;;0.70;0.57;;;;;;;2.53;97.07;94337.69;4823632;29;20118;-46
2022/01/05 03:06:12;;;;;;;0.82;0.70;;;;;;;2.60;96.95;94342.53;4823087;29;20050;-43
2022/01/05 03:08:39;;;;;;;1.00;0.68;;;;;;;2.28;99.06;94331.34;4833831;29;20053;-40
2022/01/05 03:11:05;;;;;;;1.20;0.80;;;;;;;2.58;98.19;94340.19;4841738;29;20473;-45
2022/01/05 03:13:32;;;;;;;1.38;0.70;;;;;;;2.70;97.37;94331.50;4841023;29;20046;-45
2022/01/05 03:15:59;;;;;;;0.73;0.60;;;;;;;2.64;96.74;94336.25;4832884;29;20077;-44
2022/01/05 03:18:26;;;;;;;1.10;0.80;;;;;;;2.73;97.25;94344.19;4821940;29;20058;-41
2022/01/05 03:20:53;;;;;;;0.95;0.80;;;;;;;2.63;97.95;94342.66;4822379;29;20042;-42
2022/01/05 03:23:20;;;;;;;0.95;0.80;;;;;;;2.51;98.53;94340.69;4822387;29;20054;-41
2022/01/05 03:25:47;;;;;;;0.65;0.50;;;;;;;2.51;99.38;94353.25;4823308;29;20445;-41
2022/01/05 03:28:14;;;;;;;1.15;0.80;;;;;;;2.45;99.51;94347.28;4822555;29;20074;-41
2022/01/05 03:30:41;;;;;;;1.48;0.80;;;;;;;2.62;97.45;94348.34;4823448;29;20532;-43
2022/01/05 03:33:10;;;;;;;1.10;0.70;;;;;;;2.72;97.71;94342.63;4837380;29;20146;-42
2022/01/05 03:35:41;;;;;;;0.60;0.60;;;;;;;2.69;97.76;94346.72;4823496;29;20069;-43
2022/01/05 03:38:08;;;;;;;0.80;0.60;;;;;;;2.72;98.00;94351.44;4822178;29;20046;-43
2022/01/05 03:40:35;;;;;;;2.08;0.80;;;;;;;2.79;97.09;94350.91;4822124;29;20050;-43
2022/01/05 03:43:04;;;;;;;0.80;0.60;;;;;;;2.63;98.43;94353.34;4822245;29;20050;-44
2022/01/05 03:45:32;;;;;;;0.65;0.60;;;;;;;2.45;99.92;94349.97;4822105;29;20055;-41
2022/01/05 03:48:00;;;;;;;0.85;0.60;;;;;;;2.58;100.00;94356.97;4821405;29;20176;-41
2022/01/05 03:50:27;;;;;;;0.73;0.70;;;;;;;2.74;99.15;94351.91;4822427;29;20519;-40
2022/01/05 03:52:54;;;;;;;0.50;0.43;;;;;;;2.72;98.12;94355.97;4822146;29;20057;-40
2022/01/05 03:55:21;;;;;;;1.25;0.60;;;;;;;2.75;97.74;94347.34;4822622;29;20058;-39
2022/01/05 03:57:48;;;;;;;0.95;0.40;;;;;;;2.66;97.90;94352.69;4822720;29;20560;-39
2022/01/05 04:00:15;;;;;;;0.52;0.35;;;;;;;2.60;98.10;94362.03;4843835;29;20054;-39
2022/01/05 04:02:43;;;;;;;0.52;0.50;;;;;;;2.44;99.35;94355.59;4849081;29;20045;-39
2022/01/05 04:05:10;;;;;;;0.30;0.30;;;;;;;2.45;98.46;94357.19;4847744;29;20469;-39
2022/01/05 04:07:37;;;;;;;0.55;0.32;;;;;;;2.39;99.60;94359.25;4843231;29;20520;-39
2022/01/05 04:10:04;;;;;;;1.65;0.47;;;;;;;2.50;97.88;94352.47;4832707;29;20062;-39
2022/01/05 04:12:31;;;;;;;0.30;0.30;;;;;;;2.20;100.00;94353.47;4824127;29;20054;-40
2022/01/05 04:14:58;;;;;;;1.50;0.40;;;;;;;2.42;98.56;94360.50;4825843;29;20050;-40
2022/01/05 04:17:25;;;;;;;0.82;0.43;;;;;;;2.33;99.08;94358.63;4825687;29;20052;-40
2022/01/05 04:19:52;;;;;;;0.35;0.20;;;;;;;2.41;98.87;94357.06;4825777;29;20050;-39
2022/01/05 04:22:21;;;;;;;0.77;0.40;;;;;;;2.23;99.19;94350.97;4826340;29;20065;-39
2022/01/05 04:24:48;;;;;;;1.33;0.40;;;;;;;2.43;99.39;94357.50;4826231;29;20046;-39
2022/01/05 04:27:15;;;;;;;0.75;0.30;;;;;;;2.47;98.41;94361.13;4794659;29;20076;-40
2022/01/05 04:29:43;;;;;;;0.40;0.28;;;;;;;2.40;98.55;94360.81;4826188;29;20493;-39
2022/01/05 04:32:11;;;;;;;1.10;0.30;;;;;;;2.44;97.96;94360.94;4824090;29;20057;-41
2022/01/05 04:34:38;;;;;;;0.40;0.40;;;;;;;2.39;98.02;94359.25;4825661;29;20050;-40
2022/01/05 04:37:25;;;;;;;0.35;0.35;;;;;;;2.08;99.26;94349.59;4824779;29;20048;-39
2022/01/05 04:39:53;;;;;;;0.55;0.40;;;;;;;2.29;98.76;94348.91;4825455;29;20042;-40
2022/01/05 04:42:20;;;;;;;0.60;0.40;;;;;;;2.27;98.33;94357.22;4825542;29;20050;-40
2022/01/05 04:44:47;;;;;;;0.85;0.20;;;;;;;2.19;99.65;94358.03;4825871;29;20065;-40
2022/01/05 04:47:14;;;;;;;0.50;0.30;;;;;;;2.02;98.29;94350.06;4824745;29;20537;-39
2022/01/05 04:49:40;;;;;;;0.50;0.30;;;;;;;2.20;98.44;94340.91;4834928;29;20061;-40
2022/01/05 04:52:07;;;;;;;0.30;0.30;;;;;;;2.09;98.17;94316.47;4849411;29;20059;-40
2022/01/05 04:54:34;;;;;;;0.57;0.45;;;;;;;2.16;98.57;94325.88;4840016;29;20072;-40
2022/01/05 04:57:02;;;;;;;0.25;0.20;;;;;;;2.19;98.46;94326.03;4824016;29;20097;-40
2022/01/05 04:59:29;;;;;;;0.20;0.20;;;;;;;2.22;98.90;94336.06;4828025;29;20042;-40
2022/01/05 05:01:56;;;;;;;0.30;0.22;;;;;;;2.22;99.07;94351.28;4846833;29;20046;-40
2022/01/05 05:04:23;;;;;;;0.30;0.30;;;;;;;2.22;99.03;94346.72;4847866;29;20046;-39
2022/01/05 05:06:50;;;;;;;0.52;0.38;;;;;;;2.27;98.36;94351.88;4847284;29;20427;-40
2022/01/05 05:09:18;;;;;;;0.52;0.32;;;;;;;2.28;98.07;94353.47;4835761;29;20058;-40
2022/01/05 05:11:45;;;;;;;0.20;0.20;;;;;;;2.02;99.25;94340.19;4826516;29;20057;-40
2022/01/05 05:14:12;;;;;;;0.20;0.20;;;;;;;2.15;99.11;94345.66;4826190;29;20058;-40
2022/01/05 05:16:39;;;;;;;0.47;0.30;;;;;;;2.10;98.56;94360.72;4829656;29;20515;-40
2022/01/05 05:19:06;;;;;;;0.20;0.20;;;;;;;2.04;99.43;94361.97;4828397;29;20054;-41
2022/01/05 05:21:33;;;;;;;1.30;0.40;;;;;;;2.27;99.10;94351.88;4824976;29;20489;-40
2022/01/05 05:24:00;;;;;;;0.32;0.20;;;;;;;2.38;98.34;94347.00;4824549;29;20050;-39
2022/01/05 05:26:27;;;;;;;0.30;0.30;;;;;;;2.24;99.55;94347.22;4824126;29;20564;-40
2022/01/05 05:28:54;;;;;;;0.10;0.10;;;;;;;2.41;98.34;94353.59;4823180;29;20050;-39
2022/01/05 05:31:21;;;;;;;1.27;0.40;;;;;;;2.34;97.76;94352.19;4831967;29;20057;-39
2022/01/05 05:33:48;;;;;;;0.10;0.10;;;;;;;2.40;98.69;94350.13;4842404;29;20042;-40
2022/01/05 05:36:15;;;;;;;0.30;0.20;;;;;;;2.36;97.94;94365.22;4842760;29;20065;-40
2022/01/05 05:38:42;;;;;;;0.28;0.22;;;;;;;2.34;99.22;94354.88;4840265;29;20041;-40
2022/01/05 05:41:09;;;;;;;0.20;0.10;;;;;;;2.46;97.56;94351.53;4828965;29;20054;-40
2022/01/05 05:43:36;;;;;;;0.10;0.10;;;;;;;2.43;98.42;94356.72;4823649;29;20050;-40
2022/01/05 05:46:03;;;;;;;0.20;0.20;;;;;;;2.51;97.79;94354.03;4823756;29;20057;-40
2022/01/05 05:48:30;;;;;;;0.28;0.20;;;;;;;2.47;97.72;94353.09;4823558;29;20046;-40
2022/01/05 05:50:57;;;;;;;0.40;0.20;;;;;;;2.52;98.34;94344.91;4824222;29;20073;-40
2022/01/05 05:53:24;;;;;;;0.75;0.30;;;;;;;2.52;98.23;94358.25;4838784;29;20058;-39
2022/01/05 05:55:51;;;;;;;0.40;0.20;;;;;;;2.54;98.34;94369.41;4823815;29;20138;-40
2022/01/05 05:58:18;;;;;;;0.35;0.15;;;;;;;2.48;99.57;94369.91;4823121;29;20042;-39
2022/01/05 06:00:45;;;;;;;0.55;0.25;;;;;;;2.58;98.78;94364.22;4823505;29;20050;-40
2022/01/05 06:03:12;;;;;;;0.43;0.20;;;;;;;2.58;98.39;94365.00;4823688;29;20052;-41
2022/01/05 06:05:38;;;;;;;0.10;0.00;;;;;;;2.38;98.36;94360.34;4823626;29;20046;-40
2022/01/05 06:08:05;;;;;;;0.25;0.20;;;;;;;2.55;98.52;94362.97;4825821;29;20520;-39
2022/01/05 06:10:32;;;;;;;0.40;0.20;;;;;;;2.48;98.34;94354.66;4823071;29;20069;-40
2022/01/05 06:12:59;;;;;;;0.25;0.20;;;;;;;2.60;98.02;94358.53;4809971;29;20054;-39
2022/01/05 06:15:32;;;;;;;0.10;0.10;;;;;;;2.53;98.21;94369.72;4823457;29;20053;-39
2022/01/05 06:17:59;;;;;;;0.45;0.17;;;;;;;2.45;99.27;94373.22;4822728;29;20047;-38
2022/01/05 06:20:26;;;;;;;0.10;0.10;;;;;;;2.42;100.00;94365.84;4823062;29;20047;-40
2022/01/05 06:22:53;;;;;;;0.40;0.20;;;;;;;2.34;100.00;94372.78;4823166;29;20057;-41
2022/01/05 06:25:20;;;;;;;0.30;0.20;;;;;;;2.45;99.97;94382.00;4823522;29;20050;-40
2022/01/05 06:27:47;;;;;;;0.10;0.10;;;;;;;2.38;98.89;94375.59;4823101;29;20058;-42
2022/01/05 06:30:14;;;;;;;0.10;0.10;;;;;;;2.58;99.19;94383.69;4822985;29;20450;-40
2022/01/05 06:32:43;;;;;;;0.30;0.10;;;;;;;2.60;98.37;94369.22;4826678;29;20081;-41
2022/01/05 06:35:10;;;;;;;0.30;0.20;;;;;;;2.56;98.36;94364.50;4825572;29;20421;-40
2022/01/05 06:37:37;;;;;;;0.28;0.20;;;;;;;2.64;98.71;94370.16;4822641;29;20645;-40
2022/01/05 06:40:04;;;;;;;0.40;0.20;;;;;;;2.68;98.38;94369.19;4823295;29;20046;-39
2022/01/05 06:42:31;;;;;;;0.20;0.17;;;;;;;2.47;99.38;94373.66;4823495;29;20058;-39
2022/01/05 06:44:58;;;;;;;6.10;3.75;;;;;;;2.65;99.22;94377.06;4823320;29;20055;-39
2022/01/05 06:47:26;;;;;;;2.67;1.50;;;;;;;2.81;98.43;94375.44;4822222;29;20165;-40
2022/01/05 06:49:52;;;;;;;0.93;0.20;;;;;;;2.63;98.08;94381.94;4823749;29;20046;-42
2022/01/05 06:52:19;;;;;;;0.28;0.20;;;;;;;2.43;100.00;94392.19;4825013;29;20047;-40
2022/01/05 06:54:46;;;;;;;0.43;0.20;;;;;;;2.61;99.67;94386.81;4825012;29;20061;-40
2022/01/05 06:57:13;;;;;;;0.30;0.20;;;;;;;2.70;98.62;94387.59;4822741;29;20417;-41
2022/01/05 06:59:40;;;;;;;0.30;0.20;;;;;;;2.77;97.55;94390.53;4823290;29;20054;-40
2022/01/05 07:02:08;;;;;;;0.10;0.10;;;;;;;2.66;98.08;94389.31;4823084;29;20065;-43
2022/01/05 07:04:37;;;;;;;0.28;0.10;;;;;;;2.58;99.34;94393.59;4822921;29;20505;-44
2022/01/05 07:07:05;;;;;;;0.80;0.30;;;;;;;2.72;98.42;94401.38;4822824;29;20143;-43
2022/01/05 07:09:32;;;;;;;0.52;0.20;;;;;;;2.72;97.94;94399.50;4822444;29;20131;-42
2022/01/05 07:11:59;;;;;;;0.52;0.20;;;;;;;2.74;98.49;94397.28;4822566;29;20153;-43
2022/01/05 07:14:26;;;;;;;1.00;0.25;;;;;;;2.82;97.61;94395.69;4822623;29;20103;-41
2022/01/05 07:16:53;;;;;;;0.20;0.20;;;;;;;2.75;98.97;94398.06;4822651;29;20093;-43
2022/01/05 07:19:20;;;;;;;1.77;0.20;;;;;;;2.78;98.30;94408.91;4821577;29;20047;-44
2022/01/05 07:21:48;;;;;;;0.25;0.20;;;;;;;2.88;98.10;94423.78;4808588;29;20050;-40
2022/01/05 07:24:17;;;;;;;0.80;0.20;;;;;;;2.90;98.26;94410.91;4821620;29;20054;-42
2022/01/05 07:26:45;;;;;;;0.38;0.20;;;;;;;2.93;97.78;94404.16;4821480;29;20046;-43
2022/01/05 07:29:14;;;;;;;0.45;0.30;;;;;;;2.90;97.38;94413.59;4821974;29;20184;-41
2022/01/05 07:31:41;;;;;;;0.40;0.20;;;;;;;2.84;96.97;94427.44;4835751;29;20257;-41
2022/01/05 07:34:08;;;;;;;0.28;0.20;;;;;;;2.84;98.20;94417.53;4842527;29;20068;-39
2022/01/05 07:36:35;;;;;;;0.55;0.40;;;;;;;2.85;98.15;94413.75;4843955;29;20072;-42
2022/01/05 07:39:05;;;;;;;2.33;0.40;;;;;;;2.90;97.10;94423.50;4839806;29;20054;-38
2022/01/05 07:41:33;;;;;;;0.25;0.20;;;;;;;2.96;97.09;94440.91;4825610;29;20137;-39
2022/01/05 07:44:00;;;;;;;0.30;0.20;;;;;;;2.90;97.12;94434.94;4825332;29;20050;-40
2022/01/05 07:46:27;;;;;;;0.30;0.30;;;;;;;2.82;98.38;94441.09;4825230;29;20138;-39
2022/01/05 07:48:54;;;;;;;0.43;0.40;;;;;;;2.82;97.44;94446.44;4824749;29;20053;-40
2022/01/05 07:51:21;;;;;;;0.30;0.30;;;;;;;2.86;98.54;94447.38;4826574;29;20046;-39
2022/01/05 07:53:48;;;;;;;0.30;0.30;;;;;;;2.77;97.99;94444.72;4844071;29;20046;-42
2022/01/05 07:56:15;;;;;;;1.67;0.55;;;;;;;2.85;96.67;94445.81;4843665;29;20099;-39
2022/01/05 07:58:42;;;;;;;0.80;0.40;;;;;;;2.90;97.34;94458.22;4842597;29;20130;-42
2022/01/05 08:01:09;;;;;;;0.25;0.20;;;;;;;3.01;96.84;94454.09;4840920;29;20054;-39
2022/01/05 08:03:37;;;;;;;0.50;0.50;;;;;;;2.94;97.03;94467.94;4825094;29;20074;-42
2022/01/05 08:06:20;;;;;;;0.43;0.35;;;;;;;2.86;97.90;94465.28;4825108;29;20504;-39
2022/01/05 08:08:47;;;;;;;0.38;0.32;;;;;;;2.80;97.57;94480.72;4824197;29;20052;-39
2022/01/05 08:11:14;;;;;;;0.70;0.35;;;;;;;2.84;97.66;94491.53;4854572;29;20420;-38
2022/01/05 08:13:42;;;;;;;0.40;0.40;;;;;;;2.78;98.72;94485.56;4825009;29;20058;-38
2022/01/05 08:16:09;;;;;;;0.45;0.40;;;;;;;2.86;96.92;94479.44;4824946;29;20057;-44
2022/01/05 08:18:36;;;;;;;1.40;0.30;;;;;;;2.83;96.80;94490.75;4824564;29;20391;-42
2022/01/05 08:21:03;;;;;;;0.55;0.35;;;;;;;2.77;97.72;94492.03;4849927;24;20046;-40
2022/01/05 08:23:31;;;;;;;0.98;0.57;;;;;;;2.73;98.96;94505.22;4838844;29;20055;-39
2022/01/05 08:25:58;;;;;;;1.27;0.38;;;;;;;2.90;97.38;94503.63;4824764;29;20145;-43
2022/01/05 08:28:25;;;;;;;0.40;0.30;;;;;;;3.02;97.38;94509.06;4824351;29;20046;-43
2022/01/05 08:30:52;;;;;;;1.15;0.47;;;;;;;2.86;96.59;94524.84;4824634;29;20142;-39
2022/01/05 08:33:19;;;;;;;0.28;0.20;;;;;;;2.88;97.13;94525.31;4824033;29;20474;-40
2022/01/05 08:35:46;;;;;;;0.52;0.45;;;;;;;2.95;95.68;94535.50;4825167;29;20050;-44
2022/01/05 08:38:15;;;;;;;3.05;0.47;;;;;;;2.97;95.81;94544.78;4822638;29;20106;-40
2022/01/05 08:40:43;;;;;;;0.35;0.35;;;;;;;2.93;95.26;94557.22;4824620;29;20050;-41
2022/01/05 08:43:12;;;;;;;0.30;0.30;;;;;;;2.93;95.45;94570.56;4825473;29;20276;-42
2022/01/05 08:45:40;;;;;;;0.82;0.40;;;;;;;2.97;95.45;94568.03;4823967;29;20492;-43
2022/01/05 08:48:14;;;;;;;0.65;0.40;;;;;;;2.94;95.62;94568.69;4823038;29;20042;-40
2022/01/05 08:50:41;;;;;;;1.75;0.47;;;;;;;2.86;95.56;94566.78;4824804;29;20050;-41
2022/01/05 08:53:09;;;;;;;0.30;0.30;;;;;;;2.96;94.84;94556.56;4838441;29;20142;-38
2022/01/05 08:55:40;;;;;;;0.60;0.40;;;;;;;2.85;95.03;94571.34;4824495;29;20070;-39
2022/01/05 08:58:08;;;;;;;0.85;0.50;;;;;;;2.91;94.21;94556.72;4823931;29;20078;-40
2022/01/05 09:00:36;;;;;;;0.50;0.35;;;;;;;2.95;94.63;94573.69;4824380;29;20046;-40
2022/01/05 09:03:05;;;;;;;0.82;0.40;;;;;;;2.86;94.45;94583.63;4824910;29;20577;-38
2022/01/05 09:05:33;;;;;;;0.40;0.40;;;;;;;2.84;94.93;94599.16;4824558;29;20186;-40
2022/01/05 09:08:00;;;;;;;0.47;0.43;;;;;;;2.77;94.30;94605.00;4824156;29;20497;-44
2022/01/05 09:10:28;;;;;;;0.40;0.40;;;;;;;2.64;95.42;94626.50;4837315;29;20046;-42
2022/01/05 09:12:56;;;;;;;0.40;0.40;;;;;;;2.50;96.17;94611.44;4842484;29;20522;-43
2022/01/05 09:15:23;;;;;;;0.63;0.52;;;;;;;2.57;95.33;94621.66;4842420;29;20054;-43
2022/01/05 09:17:51;;;;;;;1.00;0.60;;;;;;;2.49;95.03;94625.06;4841833;29;20057;-40
2022/01/05 09:20:18;;;;;;;0.80;0.70;;;;;;;2.53;95.25;94624.13;4827414;29;20137;-40
2022/01/05 09:22:46;;;;;;;1.23;0.80;;;;;;;2.44;96.23;94628.69;4823995;29;20416;-41
2022/01/05 09:25:16;;;;;;;1.30;1.00;;;;;;;2.41;95.24;94649.88;4824163;29;20050;-40
2022/01/05 09:27:45;;;;;;;1.15;0.93;;;;;;;2.46;94.52;94658.50;4823590;29;20078;-40
2022/01/05 09:30:13;;;;;;;1.58;1.13;;;;;;;2.54;94.32;94660.44;4823894;29;20416;-40
2022/01/05 09:32:40;;;;;;;2.72;1.38;;;;;;;2.47;94.24;94667.31;4824189;29;20051;-40
2022/01/05 09:35:11;;;;;;;1.90;1.30;;;;;;;2.45;93.96;94666.84;4824644;29;20050;-40
2022/01/05 09:37:50;;;;;;;2.80;1.80;;;;;;;2.53;93.73;94666.06;4822842;29;20065;-40
2022/01/05 09:43:05;;;;;;;3.45;2.30;;;;;;;2.24;93.06;94693.31;4823943;29;20054;-42
2022/01/05 09:45:35;;;;;;;3.13;2.10;;;;;;;2.21;92.78;94694.75;4823983;29;20046;-42
2022/01/05 09:48:29;;;;;;;3.03;1.95;;;;;;;1.93;91.96;94707.50;4823231;29;20099;-38
2022/01/05 09:51:12;;;;;;;4.32;2.78;;;;;;;1.94;91.92;94711.72;4823781;29;20137;-38
2022/01/05 09:53:40;;;;;;;3.60;2.10;;;;;;;1.79;91.71;94715.59;4823455;29;20107;-38
2022/01/05 09:56:30;;;;;;;4.22;2.72;;;;;;;1.71;93.07;94718.97;4823405;29;20042;-39
2022/01/05 09:59:01;;;;;;;4.45;3.35;;;;;;;1.83;92.36;94721.09;4821673;29;20051;-41
2022/01/05 10:01:34;;;;;;;4.47;3.10;;;;;;;1.92;92.33;94727.25;4839070;29;20050;-43
2022/01/05 10:04:02;;;;;;;4.32;2.90;;;;;;;1.89;91.25;94727.88;4840585;29;20081;-39
2022/01/05 10:06:36;;;;;;;3.63;2.50;;;;;;;1.56;92.63;94716.69;4842005;29;20058;-39
2022/01/05 10:09:03;;;;;;;4.30;3.10;;;;;;;1.62;93.42;94729.59;4833151;29;20125;-38
2022/01/05 10:11:30;;;;;;;4.20;3.13;;;;;;;1.82;92.56;94735.50;4822393;29;20141;-42
2022/01/05 10:13:57;;;;;;;4.57;3.55;;;;;;;1.90;91.79;94731.31;4823113;29;20051;-38
2022/01/05 10:16:24;;;;;;;5.97;3.10;;;;;;;1.68;93.30;94748.91;4823441;29;20554;-38
2022/01/05 10:18:52;;;;;;;7.82;3.85;;;;;;;2.02;91.71;94745.66;4835407;29;20551;-39
2022/01/05 10:21:19;;;;;;;4.30;3.13;;;;;;;1.84;90.75;94752.00;4853113;29;20053;-39
2022/01/05 10:23:52;;;;;;;4.38;3.33;;;;;;;1.85;90.17;94743.69;4823301;29;20425;-43
2022/01/05 10:26:29;;;;;;;4.00;2.33;;;;;;;1.44;91.90;94759.13;4823246;29;20046;-42
2022/01/05 10:28:59;;;;;;;4.68;2.97;;;;;;;1.44;92.99;94759.91;4822601;29;20582;-38
2022/01/05 10:31:41;;;;;;;5.13;3.50;;;;;;;1.40;94.63;94758.94;4831974;29;20087;-41
2022/01/05 10:34:22;;;;;;;4.65;2.88;;;;;;;1.23;95.91;94764.91;4841388;29;20427;-45
2022/01/05 10:36:53;;;;;;;5.70;3.53;;;;;;;1.32;93.36;94762.31;4841142;29;20042;-41
2022/01/05 10:39:28;;;;;;;5.38;3.65;;;;;;;1.45;94.33;94766.00;4840468;29;20125;-41
2022/01/05 10:41:55;;;;;;;4.80;3.08;;;;;;;1.71;91.30;94758.19;4825893;29;20057;-41
2022/01/05 10:44:24;;;;;;;5.13;3.60;;;;;;;1.82;89.78;94772.84;4822844;29;20065;-39
2022/01/05 10:46:57;;;;;;;7.32;2.88;;;;;;;1.97;89.03;94774.34;4822885;29;20054;-41
2022/01/05 10:49:30;;;;;;;4.57;2.75;;;;;;;1.97;88.24;94777.78;4822012;29;20129;-42
2022/01/05 10:52:19;;;;;;;3.75;2.47;;;;;;;1.95;87.26;94779.19;4835116;29;20046;-43
2022/01/05 10:54:47;;;;;;;6.53;2.67;;;;;;;1.63;89.14;94778.38;4823494;29;20054;-44
2022/01/05 10:57:15;;;;;;;4.55;2.60;;;;;;;1.81;87.14;94776.59;4823491;29;20169;-41
2022/01/05 10:59:54;;;;;;;4.97;2.60;;;;;;;1.93;85.08;94779.50;4821990;29;20057;-39
2022/01/05 11:02:31;;;;;;;4.82;2.45;;;;;;;1.63;85.63;94786.38;4823053;29;20046;-42
2022/01/05 11:05:06;;;;;;;4.20;2.22;;;;;;;1.62;87.04;94790.91;4823056;29;20129;-42
2022/01/05 11:07:39;;;;;;;5.10;2.20;;;;;;;1.70;86.48;94785.97;4821771;29;20055;-43
2022/01/05 11:10:12;;;;;;;4.10;1.50;;;;;;;1.63;84.56;94799.72;4824457;29;20103;-38
2022/01/05 11:12:44;;;;;;;4.05;2.20;;;;;;;1.89;85.00;94791.09;4823507;29;20058;-41
2022/01/05 11:15:19;;;;;;;3.45;2.13;;;;;;;2.01;83.46;94799.31;4823310;29;20047;-39
2022/01/05 11:18:04;;;;;;;3.70;2.03;;;;;;;1.78;83.31;94806.53;4822838;29;20051;-39
2022/01/05 11:20:31;;;;;;;4.70;1.90;;;;;;;1.80;83.41;94818.50;4822776;29;20341;-39
2022/01/05 11:22:58;;;;;;;5.15;2.03;;;;;;;1.80;81.20;94823.03;4822245;29;20050;-42
2022/01/05 11:25:26;;;;;;;4.20;1.48;;;;;;;1.49;80.99;94822.97;4822703;29;20466;-42
2022/01/05 11:27:53;;;;;;;3.80;1.70;;;;;;;1.56;80.06;94829.47;4836946;29;20178;-43
2022/01/05 11:30:20;;;;;;;3.10;1.30;;;;;;;1.21;81.55;94843.56;4806820;29;20046;-42
2022/01/05 11:32:48;;;;;;;2.50;1.33;;;;;;;1.13;81.25;94851.16;4822628;29;20085;-42
2022/01/05 11:35:17;;;;;;;3.28;1.60;;;;;;;1.24;82.31;94848.31;4822501;29;20047;-42
2022/01/05 11:37:46;;;;;;;3.42;1.70;;;;;;;1.36;82.07;94859.22;4821756;29;20520;-42
2022/01/05 11:40:14;;;;;;;2.22;1.17;;;;;;;1.35;78.32;94855.75;4824960;29;20051;-41
2022/01/05 11:42:42;;;;;;;3.88;1.58;;;;;;;1.19;80.81;94859.06;4821651;29;20058;-42
2022/01/05 11:45:09;;;;;;;3.10;1.42;;;;;;;1.01;78.83;94874.88;4822240;29;20532;-39
2022/01/05 11:47:39;;;;;;;2.17;1.20;;;;;;;0.98;78.69;94862.16;4821604;29;20486;-40
2022/01/05 11:50:15;;;;;;;3.50;1.40;;;;;;;0.98;73.59;94862.16;4822094;29;20054;-40